sensor_id;sensor_type;location;lat;lon;timestamp;temperature;humidity
11055;DHT22;5580;50.106;8.702;2024-03-22T00:00:59;12.90;99.90
11055;DHT22;5580;50.106;8.702;2024-03-22T00:03:25;12.90;99.90
11055;DHT22;5580;50.106;8.702;2024-03-22T00:05:51;12.90;99.90
11055;DHT22;5580;50.106;8.702;2024-03-22T00:08:16;12.90;99.90
11055;DHT22;5580;50.106;8.702;2024-03-22T00:10:42;12.90;99.90
11055;DHT22;5580;50.106;8.702;2024-03-22T00:13:07;12.90;99.90
11055;DHT22;5580;50.106;8.702;2024-03-22T00:15:33;12.80;99.90
11055;DHT22;5580;50.106;8.702;2024-03-22T00:17:58;12.80;99.90
11055;DHT22;5580;50.106;8.702;2024-03-22T00:20:24;12.80;99.90
11055;DHT22;5580;50.106;8.702;2024-03-22T00:22:49;12.80;99.90
11055;DHT22;5580;50.106;8.702;2024-03-22T00:25:15;12.70;99.90
11055;DHT22;5580;50.106;8.702;2024-03-22T00:27:41;12.70;99.90
11055;DHT22;5580;50.106;8.702;2024-03-22T00:30:07;12.70;99.90
11055;DHT22;5580;50.106;8.702;2024-03-22T00:32:32;12.70;99.90
11055;DHT22;5580;50.106;8.702;2024-03-22T00:34:58;12.60;99.90
11055;DHT22;5580;50.106;8.702;2024-03-22T00:37:23;12.60;99.90
11055;DHT22;5580;50.106;8.702;2024-03-22T00:39:49;12.60;99.90
11055;DHT22;5580;50.106;8.702;2024-03-22T00:42:14;12.60;99.90
11055;DHT22;5580;50.106;8.702;2024-03-22T00:44:40;12.60;99.90
11055;DHT22;5580;50.106;8.702;2024-03-22T00:47:06;12.50;99.90
11055;DHT22;5580;50.106;8.702;2024-03-22T00:49:32;12.50;99.90
11055;DHT22;5580;50.106;8.702;2024-03-22T00:51:57;12.50;99.90
11055;DHT22;5580;50.106;8.702;2024-03-22T00:54:23;12.40;99.90
11055;DHT22;5580;50.106;8.702;2024-03-22T00:56:49;12.40;99.90
11055;DHT22;5580;50.106;8.702;2024-03-22T00:59:14;12.30;99.90
11055;DHT22;5580;50.106;8.702;2024-03-22T01:01:40;12.30;99.90
11055;DHT22;5580;50.106;8.702;2024-03-22T01:04:05;12.30;99.90
11055;DHT22;5580;50.106;8.702;2024-03-22T01:06:32;12.30;99.90
11055;DHT22;5580;50.106;8.702;2024-03-22T01:08:59;12.30;99.90
11055;DHT22;5580;50.106;8.702;2024-03-22T01:11:24;12.30;99.90
11055;DHT22;5580;50.106;8.702;2024-03-22T01:13:50;12.30;99.90
11055;DHT22;5580;50.106;8.702;2024-03-22T01:16:16;12.30;99.90
11055;DHT22;5580;50.106;8.702;2024-03-22T01:18:42;12.30;99.90
11055;DHT22;5580;50.106;8.702;2024-03-22T01:21:07;12.30;99.90
11055;DHT22;5580;50.106;8.702;2024-03-22T01:23:33;12.30;99.90
11055;DHT22;5580;50.106;8.702;2024-03-22T01:25:58;12.20;99.90
11055;DHT22;5580;50.106;8.702;2024-03-22T01:28:24;12.10;99.90
11055;DHT22;5580;50.106;8.702;2024-03-22T01:30:50;12.10;99.90
11055;DHT22;5580;50.106;8.702;2024-03-22T01:33:15;12.10;99.90
11055;DHT22;5580;50.106;8.702;2024-03-22T01:35:41;12.10;99.90
11055;DHT22;5580;50.106;8.702;2024-03-22T01:38:06;12.10;99.90
11055;DHT22;5580;50.106;8.702;2024-03-22T01:40:32;12.10;99.90
11055;DHT22;5580;50.106;8.702;2024-03-22T01:42:58;12.10;99.90
11055;DHT22;5580;50.106;8.702;2024-03-22T01:45:25;12.00;99.90
11055;DHT22;5580;50.106;8.702;2024-03-22T01:47:51;12.00;99.90
11055;DHT22;5580;50.106;8.702;2024-03-22T01:50:20;12.00;99.90
11055;DHT22;5580;50.106;8.702;2024-03-22T01:52:46;12.00;99.90
11055;DHT22;5580;50.106;8.702;2024-03-22T01:55:12;12.10;99.90
11055;DHT22;5580;50.106;8.702;2024-03-22T01:57:38;12.10;99.90
11055;DHT22;5580;50.106;8.702;2024-03-22T02:00:04;12.10;99.90
11055;DHT22;5580;50.106;8.702;2024-03-22T02:02:30;12.10;99.90
11055;DHT22;5580;50.106;8.702;2024-03-22T02:04:56;12.10;99.90
11055;DHT22;5580;50.106;8.702;2024-03-22T02:07:22;12.10;99.90
11055;DHT22;5580;50.106;8.702;2024-03-22T02:09:48;12.00;99.90
11055;DHT22;5580;50.106;8.702;2024-03-22T02:12:14;12.00;99.90
11055;DHT22;5580;50.106;8.702;2024-03-22T02:14:41;11.90;99.90
11055;DHT22;5580;50.106;8.702;2024-03-22T02:17:07;11.80;99.90
11055;DHT22;5580;50.106;8.702;2024-03-22T02:19:32;11.80;99.90
11055;DHT22;5580;50.106;8.702;2024-03-22T02:21:58;11.80;99.90
11055;DHT22;5580;50.106;8.702;2024-03-22T02:24:23;11.70;99.90
11055;DHT22;5580;50.106;8.702;2024-03-22T02:26:49;11.70;99.90
11055;DHT22;5580;50.106;8.702;2024-03-22T02:29:14;11.60;99.90
11055;DHT22;5580;50.106;8.702;2024-03-22T02:31:40;11.60;99.90
11055;DHT22;5580;50.106;8.702;2024-03-22T02:34:05;11.60;99.90
11055;DHT22;5580;50.106;8.702;2024-03-22T02:36:31;11.70;99.90
11055;DHT22;5580;50.106;8.702;2024-03-22T02:38:57;11.70;99.90
11055;DHT22;5580;50.106;8.702;2024-03-22T02:41:22;11.70;99.90
11055;DHT22;5580;50.106;8.702;2024-03-22T02:43:48;11.70;99.90
11055;DHT22;5580;50.106;8.702;2024-03-22T02:46:14;11.60;99.90
11055;DHT22;5580;50.106;8.702;2024-03-22T02:48:39;11.70;99.90
11055;DHT22;5580;50.106;8.702;2024-03-22T02:51:05;11.60;99.90
11055;DHT22;5580;50.106;8.702;2024-03-22T02:53:30;11.60;99.90
11055;DHT22;5580;50.106;8.702;2024-03-22T02:56:00;11.60;99.90
11055;DHT22;5580;50.106;8.702;2024-03-22T02:58:26;11.50;99.90
11055;DHT22;5580;50.106;8.702;2024-03-22T03:00:51;11.40;99.90
11055;DHT22;5580;50.106;8.702;2024-03-22T03:03:17;11.40;99.90
11055;DHT22;5580;50.106;8.702;2024-03-22T03:05:42;11.40;99.90
11055;DHT22;5580;50.106;8.702;2024-03-22T03:08:09;11.40;99.90
11055;DHT22;5580;50.106;8.702;2024-03-22T03:10:35;11.40;99.90
11055;DHT22;5580;50.106;8.702;2024-03-22T03:13:01;11.40;99.90
11055;DHT22;5580;50.106;8.702;2024-03-22T03:15:26;11.50;99.90
11055;DHT22;5580;50.106;8.702;2024-03-22T03:17:52;11.50;99.90
11055;DHT22;5580;50.106;8.702;2024-03-22T03:20:18;11.50;99.90
11055;DHT22;5580;50.106;8.702;2024-03-22T03:22:43;11.50;99.90
11055;DHT22;5580;50.106;8.702;2024-03-22T03:25:09;11.40;99.90
11055;DHT22;5580;50.106;8.702;2024-03-22T03:27:35;11.40;99.90
11055;DHT22;5580;50.106;8.702;2024-03-22T03:30:01;11.30;99.90
11055;DHT22;5580;50.106;8.702;2024-03-22T03:32:28;11.30;99.90
11055;DHT22;5580;50.106;8.702;2024-03-22T03:34:53;11.30;99.90
11055;DHT22;5580;50.106;8.702;2024-03-22T03:37:19;11.20;99.90
11055;DHT22;5580;50.106;8.702;2024-03-22T03:39:45;11.20;99.90
11055;DHT22;5580;50.106;8.702;2024-03-22T03:42:11;11.20;99.90
11055;DHT22;5580;50.106;8.702;2024-03-22T03:44:37;11.20;99.90
11055;DHT22;5580;50.106;8.702;2024-03-22T03:47:02;11.20;99.90
11055;DHT22;5580;50.106;8.702;2024-03-22T03:49:28;11.20;99.90
11055;DHT22;5580;50.106;8.702;2024-03-22T03:51:54;11.20;99.90
11055;DHT22;5580;50.106;8.702;2024-03-22T03:54:19;11.20;99.90
11055;DHT22;5580;50.106;8.702;2024-03-22T03:56:45;11.20;99.90
11055;DHT22;5580;50.106;8.702;2024-03-22T03:59:10;11.20;99.90
11055;DHT22;5580;50.106;8.702;2024-03-22T04:01:36;11.10;99.90
11055;DHT22;5580;50.106;8.702;2024-03-22T04:04:03;11.00;99.90
11055;DHT22;5580;50.106;8.702;2024-03-22T04:06:29;11.00;99.90
11055;DHT22;5580;50.106;8.702;2024-03-22T04:08:54;11.00;99.90
11055;DHT22;5580;50.106;8.702;2024-03-22T04:11:20;11.00;99.90
11055;DHT22;5580;50.106;8.702;2024-03-22T04:13:45;11.00;99.90
11055;DHT22;5580;50.106;8.702;2024-03-22T04:16:12;11.00;99.90
11055;DHT22;5580;50.106;8.702;2024-03-22T04:18:38;11.00;99.90
11055;DHT22;5580;50.106;8.702;2024-03-22T04:21:04;11.00;99.90
11055;DHT22;5580;50.106;8.702;2024-03-22T04:23:30;11.10;99.90
11055;DHT22;5580;50.106;8.702;2024-03-22T04:25:57;11.10;99.90
11055;DHT22;5580;50.106;8.702;2024-03-22T04:28:27;11.00;99.90
11055;DHT22;5580;50.106;8.702;2024-03-22T04:31:00;11.00;99.90
11055;DHT22;5580;50.106;8.702;2024-03-22T04:33:26;11.00;99.90
11055;DHT22;5580;50.106;8.702;2024-03-22T04:35:53;11.00;99.90
11055;DHT22;5580;50.106;8.702;2024-03-22T04:38:19;11.00;99.90
11055;DHT22;5580;50.106;8.702;2024-03-22T04:40:44;11.00;99.90
11055;DHT22;5580;50.106;8.702;2024-03-22T04:43:10;11.00;99.90
11055;DHT22;5580;50.106;8.702;2024-03-22T04:45:35;11.00;99.90
11055;DHT22;5580;50.106;8.702;2024-03-22T04:48:03;11.00;99.90
11055;DHT22;5580;50.106;8.702;2024-03-22T04:50:29;11.00;99.90
11055;DHT22;5580;50.106;8.702;2024-03-22T04:52:54;10.90;99.90
11055;DHT22;5580;50.106;8.702;2024-03-22T04:55:20;11.00;99.90
11055;DHT22;5580;50.106;8.702;2024-03-22T04:57:46;11.00;99.90
11055;DHT22;5580;50.106;8.702;2024-03-22T05:00:11;11.10;99.90
11055;DHT22;5580;50.106;8.702;2024-03-22T05:02:38;11.10;99.90
11055;DHT22;5580;50.106;8.702;2024-03-22T05:05:03;11.00;99.90
11055;DHT22;5580;50.106;8.702;2024-03-22T05:07:29;11.10;99.90
11055;DHT22;5580;50.106;8.702;2024-03-22T05:09:55;11.10;99.90
11055;DHT22;5580;50.106;8.702;2024-03-22T05:12:20;11.10;99.90
11055;DHT22;5580;50.106;8.702;2024-03-22T05:14:46;11.10;99.90
11055;DHT22;5580;50.106;8.702;2024-03-22T05:17:12;11.10;99.90
11055;DHT22;5580;50.106;8.702;2024-03-22T05:19:37;11.10;99.90
11055;DHT22;5580;50.106;8.702;2024-03-22T05:22:03;11.10;99.90
11055;DHT22;5580;50.106;8.702;2024-03-22T05:24:29;11.10;99.90
11055;DHT22;5580;50.106;8.702;2024-03-22T05:26:54;11.10;99.90
11055;DHT22;5580;50.106;8.702;2024-03-22T05:29:20;11.20;99.90
11055;DHT22;5580;50.106;8.702;2024-03-22T05:31:49;11.20;99.90
11055;DHT22;5580;50.106;8.702;2024-03-22T05:34:17;11.20;99.90
11055;DHT22;5580;50.106;8.702;2024-03-22T05:36:42;11.10;99.90
11055;DHT22;5580;50.106;8.702;2024-03-22T05:39:08;11.20;99.90
11055;DHT22;5580;50.106;8.702;2024-03-22T05:41:36;11.20;99.90
11055;DHT22;5580;50.106;8.702;2024-03-22T05:44:01;11.20;99.90
11055;DHT22;5580;50.106;8.702;2024-03-22T05:46:28;11.20;99.90
11055;DHT22;5580;50.106;8.702;2024-03-22T05:48:54;11.20;99.90
11055;DHT22;5580;50.106;8.702;2024-03-22T05:51:19;11.20;99.90
11055;DHT22;5580;50.106;8.702;2024-03-22T05:53:45;11.20;99.90
11055;DHT22;5580;50.106;8.702;2024-03-22T05:56:11;11.10;99.90
11055;DHT22;5580;50.106;8.702;2024-03-22T05:58:36;11.10;99.90
11055;DHT22;5580;50.106;8.702;2024-03-22T06:01:02;11.10;99.90
11055;DHT22;5580;50.106;8.702;2024-03-22T06:03:28;11.10;99.90
11055;DHT22;5580;50.106;8.702;2024-03-22T06:05:54;11.10;99.90
11055;DHT22;5580;50.106;8.702;2024-03-22T06:08:26;11.10;99.90
11055;DHT22;5580;50.106;8.702;2024-03-22T06:10:55;11.20;99.90
11055;DHT22;5580;50.106;8.702;2024-03-22T06:13:24;11.20;99.90
11055;DHT22;5580;50.106;8.702;2024-03-22T06:15:50;11.20;99.90
11055;DHT22;5580;50.106;8.702;2024-03-22T06:18:16;11.20;99.90
11055;DHT22;5580;50.106;8.702;2024-03-22T06:20:42;11.20;99.90
11055;DHT22;5580;50.106;8.702;2024-03-22T06:23:08;11.20;99.90
11055;DHT22;5580;50.106;8.702;2024-03-22T06:25:34;11.20;99.90
11055;DHT22;5580;50.106;8.702;2024-03-22T06:27:59;11.30;99.90
11055;DHT22;5580;50.106;8.702;2024-03-22T06:30:25;11.30;99.90
11055;DHT22;5580;50.106;8.702;2024-03-22T06:32:50;11.30;99.90
11055;DHT22;5580;50.106;8.702;2024-03-22T06:35:16;11.40;99.90
11055;DHT22;5580;50.106;8.702;2024-03-22T06:37:42;11.40;99.90
11055;DHT22;5580;50.106;8.702;2024-03-22T06:40:07;11.40;99.90
11055;DHT22;5580;50.106;8.702;2024-03-22T06:42:33;11.50;99.90
11055;DHT22;5580;50.106;8.702;2024-03-22T06:44:59;11.50;99.90
11055;DHT22;5580;50.106;8.702;2024-03-22T06:47:24;11.50;99.90
11055;DHT22;5580;50.106;8.702;2024-03-22T06:49:50;11.50;99.90
11055;DHT22;5580;50.106;8.702;2024-03-22T06:52:16;11.50;99.90
11055;DHT22;5580;50.106;8.702;2024-03-22T06:54:43;11.60;99.90
11055;DHT22;5580;50.106;8.702;2024-03-22T06:57:09;11.60;99.90
11055;DHT22;5580;50.106;8.702;2024-03-22T06:59:34;11.60;99.90
11055;DHT22;5580;50.106;8.702;2024-03-22T07:02:00;11.60;99.90
11055;DHT22;5580;50.106;8.702;2024-03-22T07:04:25;11.60;99.90
11055;DHT22;5580;50.106;8.702;2024-03-22T07:06:51;11.60;99.90
11055;DHT22;5580;50.106;8.702;2024-03-22T07:09:17;11.60;99.90
11055;DHT22;5580;50.106;8.702;2024-03-22T07:11:43;11.70;99.90
11055;DHT22;5580;50.106;8.702;2024-03-22T07:14:09;11.70;99.90
11055;DHT22;5580;50.106;8.702;2024-03-22T07:16:34;11.70;99.90
11055;DHT22;5580;50.106;8.702;2024-03-22T07:19:02;11.70;99.90
11055;DHT22;5580;50.106;8.702;2024-03-22T07:21:29;11.70;99.90
11055;DHT22;5580;50.106;8.702;2024-03-22T07:23:54;11.70;99.90
11055;DHT22;5580;50.106;8.702;2024-03-22T07:26:20;11.80;99.90
11055;DHT22;5580;50.106;8.702;2024-03-22T07:28:46;11.80;99.90
11055;DHT22;5580;50.106;8.702;2024-03-22T07:31:11;11.80;99.90
11055;DHT22;5580;50.106;8.702;2024-03-22T07:33:37;11.80;99.90
11055;DHT22;5580;50.106;8.702;2024-03-22T07:36:04;11.90;99.90
11055;DHT22;5580;50.106;8.702;2024-03-22T07:38:30;11.80;99.90
11055;DHT22;5580;50.106;8.702;2024-03-22T07:40:56;11.80;99.90
11055;DHT22;5580;50.106;8.702;2024-03-22T07:43:21;11.80;99.90
11055;DHT22;5580;50.106;8.702;2024-03-22T07:45:47;11.80;99.90
11055;DHT22;5580;50.106;8.702;2024-03-22T07:48:12;11.90;99.90
11055;DHT22;5580;50.106;8.702;2024-03-22T07:50:38;11.90;99.90
11055;DHT22;5580;50.106;8.702;2024-03-22T07:53:04;11.80;99.90
11055;DHT22;5580;50.106;8.702;2024-03-22T07:55:29;11.80;99.90
11055;DHT22;5580;50.106;8.702;2024-03-22T07:57:55;11.90;99.90
11055;DHT22;5580;50.106;8.702;2024-03-22T08:00:21;11.90;99.90
11055;DHT22;5580;50.106;8.702;2024-03-22T08:02:47;11.90;99.90
11055;DHT22;5580;50.106;8.702;2024-03-22T08:05:12;12.00;99.90
11055;DHT22;5580;50.106;8.702;2024-03-22T08:07:38;12.00;99.90
11055;DHT22;5580;50.106;8.702;2024-03-22T08:10:04;12.00;99.90
11055;DHT22;5580;50.106;8.702;2024-03-22T08:12:30;12.10;99.90
11055;DHT22;5580;50.106;8.702;2024-03-22T08:14:55;12.10;99.90
11055;DHT22;5580;50.106;8.702;2024-03-22T08:17:21;12.10;99.90
11055;DHT22;5580;50.106;8.702;2024-03-22T08:19:47;12.20;99.90
11055;DHT22;5580;50.106;8.702;2024-03-22T08:22:12;12.20;99.90
11055;DHT22;5580;50.106;8.702;2024-03-22T08:24:39;12.20;99.90
11055;DHT22;5580;50.106;8.702;2024-03-22T08:27:05;12.20;99.90
11055;DHT22;5580;50.106;8.702;2024-03-22T08:29:31;12.30;99.90
11055;DHT22;5580;50.106;8.702;2024-03-22T08:31:56;12.30;99.90
11055;DHT22;5580;50.106;8.702;2024-03-22T08:34:22;12.30;99.90
11055;DHT22;5580;50.106;8.702;2024-03-22T08:36:48;12.30;99.90
11055;DHT22;5580;50.106;8.702;2024-03-22T08:39:13;12.30;99.90
11055;DHT22;5580;50.106;8.702;2024-03-22T08:41:40;12.40;99.90
11055;DHT22;5580;50.106;8.702;2024-03-22T08:44:06;12.40;99.90
11055;DHT22;5580;50.106;8.702;2024-03-22T08:46:32;12.50;99.90
11055;DHT22;5580;50.106;8.702;2024-03-22T08:48:58;12.50;99.90
11055;DHT22;5580;50.106;8.702;2024-03-22T08:51:23;12.50;99.90
11055;DHT22;5580;50.106;8.702;2024-03-22T08:53:50;12.50;99.90
11055;DHT22;5580;50.106;8.702;2024-03-22T08:56:16;12.50;99.90
11055;DHT22;5580;50.106;8.702;2024-03-22T08:58:41;12.60;99.90
11055;DHT22;5580;50.106;8.702;2024-03-22T09:01:07;12.60;99.90
11055;DHT22;5580;50.106;8.702;2024-03-22T09:03:36;12.60;99.90
11055;DHT22;5580;50.106;8.702;2024-03-22T09:06:01;12.70;99.90
11055;DHT22;5580;50.106;8.702;2024-03-22T09:08:28;12.70;99.90
11055;DHT22;5580;50.106;8.702;2024-03-22T09:10:54;12.80;99.90
11055;DHT22;5580;50.106;8.702;2024-03-22T09:13:20;12.90;99.90
11055;DHT22;5580;50.106;8.702;2024-03-22T09:15:46;12.90;99.90
11055;DHT22;5580;50.106;8.702;2024-03-22T09:18:11;13.00;99.90
11055;DHT22;5580;50.106;8.702;2024-03-22T09:20:37;13.00;99.90
11055;DHT22;5580;50.106;8.702;2024-03-22T09:23:03;13.10;99.90
11055;DHT22;5580;50.106;8.702;2024-03-22T09:25:29;13.20;99.90
11055;DHT22;5580;50.106;8.702;2024-03-22T09:27:55;13.20;99.90
11055;DHT22;5580;50.106;8.702;2024-03-22T09:30:20;13.20;99.90
11055;DHT22;5580;50.106;8.702;2024-03-22T09:32:47;13.30;99.90
11055;DHT22;5580;50.106;8.702;2024-03-22T09:35:13;13.40;99.90
11055;DHT22;5580;50.106;8.702;2024-03-22T09:37:43;13.40;99.90
11055;DHT22;5580;50.106;8.702;2024-03-22T09:40:09;13.40;99.90
11055;DHT22;5580;50.106;8.702;2024-03-22T09:42:38;13.40;99.90
11055;DHT22;5580;50.106;8.702;2024-03-22T09:45:09;13.40;99.90
11055;DHT22;5580;50.106;8.702;2024-03-22T09:47:38;13.40;99.90
11055;DHT22;5580;50.106;8.702;2024-03-22T09:50:08;13.40;99.90
11055;DHT22;5580;50.106;8.702;2024-03-22T09:52:35;13.50;99.90
11055;DHT22;5580;50.106;8.702;2024-03-22T09:55:04;13.50;99.90
11055;DHT22;5580;50.106;8.702;2024-03-22T09:57:31;13.50;99.90
11055;DHT22;5580;50.106;8.702;2024-03-22T09:59:57;13.60;99.90
11055;DHT22;5580;50.106;8.702;2024-03-22T10:02:23;13.60;99.90
11055;DHT22;5580;50.106;8.702;2024-03-22T10:04:51;13.60;99.90
11055;DHT22;5580;50.106;8.702;2024-03-22T10:07:17;13.70;99.90
11055;DHT22;5580;50.106;8.702;2024-03-22T10:09:44;13.80;99.90
11055;DHT22;5580;50.106;8.702;2024-03-22T10:12:10;13.80;99.90
11055;DHT22;5580;50.106;8.702;2024-03-22T10:14:35;13.80;99.90
11055;DHT22;5580;50.106;8.702;2024-03-22T10:17:02;13.90;99.90
11055;DHT22;5580;50.106;8.702;2024-03-22T10:19:28;13.90;99.90
11055;DHT22;5580;50.106;8.702;2024-03-22T10:22:04;14.00;99.90
11055;DHT22;5580;50.106;8.702;2024-03-22T10:24:30;14.10;99.90
11055;DHT22;5580;50.106;8.702;2024-03-22T10:26:56;14.10;99.90
11055;DHT22;5580;50.106;8.702;2024-03-22T10:29:22;14.10;99.90
11055;DHT22;5580;50.106;8.702;2024-03-22T10:31:52;14.20;99.90
11055;DHT22;5580;50.106;8.702;2024-03-22T10:34:18;14.20;99.90
11055;DHT22;5580;50.106;8.702;2024-03-22T10:36:46;14.30;99.90
11055;DHT22;5580;50.106;8.702;2024-03-22T10:39:16;14.30;99.90
11055;DHT22;5580;50.106;8.702;2024-03-22T10:41:47;14.40;99.90
11055;DHT22;5580;50.106;8.702;2024-03-22T10:44:14;14.40;99.90
11055;DHT22;5580;50.106;8.702;2024-03-22T10:46:47;14.50;99.90
11055;DHT22;5580;50.106;8.702;2024-03-22T10:49:18;14.60;99.90
11055;DHT22;5580;50.106;8.702;2024-03-22T10:51:50;14.60;99.90
11055;DHT22;5580;50.106;8.702;2024-03-22T10:54:20;14.60;99.90
11055;DHT22;5580;50.106;8.702;2024-03-22T10:56:46;14.60;99.90
11055;DHT22;5580;50.106;8.702;2024-03-22T10:59:19;14.70;99.90
11055;DHT22;5580;50.106;8.702;2024-03-22T11:01:46;14.70;99.90
11055;DHT22;5580;50.106;8.702;2024-03-22T11:04:11;14.70;99.90
11055;DHT22;5580;50.106;8.702;2024-03-22T11:06:37;14.80;99.90
11055;DHT22;5580;50.106;8.702;2024-03-22T11:09:03;14.80;99.90
11055;DHT22;5580;50.106;8.702;2024-03-22T11:11:35;14.90;99.90
11055;DHT22;5580;50.106;8.702;2024-03-22T11:14:03;14.90;99.90
11055;DHT22;5580;50.106;8.702;2024-03-22T11:16:30;15.00;99.90
11055;DHT22;5580;50.106;8.702;2024-03-22T11:18:55;15.00;99.90
11055;DHT22;5580;50.106;8.702;2024-03-22T11:21:21;15.10;99.90
11055;DHT22;5580;50.106;8.702;2024-03-22T11:23:47;15.10;99.90
11055;DHT22;5580;50.106;8.702;2024-03-22T11:26:13;15.20;99.90
11055;DHT22;5580;50.106;8.702;2024-03-22T11:28:42;15.20;99.90
11055;DHT22;5580;50.106;8.702;2024-03-22T11:31:08;15.30;99.90
11055;DHT22;5580;50.106;8.702;2024-03-22T11:33:33;15.40;99.90
11055;DHT22;5580;50.106;8.702;2024-03-22T11:35:59;15.50;99.90
11055;DHT22;5580;50.106;8.702;2024-03-22T11:38:28;15.50;99.90
11055;DHT22;5580;50.106;8.702;2024-03-22T11:40:57;15.60;99.90
11055;DHT22;5580;50.106;8.702;2024-03-22T11:43:26;15.60;99.90
11055;DHT22;5580;50.106;8.702;2024-03-22T11:45:53;15.60;99.90
11055;DHT22;5580;50.106;8.702;2024-03-22T11:48:19;15.70;99.90
11055;DHT22;5580;50.106;8.702;2024-03-22T11:50:45;15.60;99.90
11055;DHT22;5580;50.106;8.702;2024-03-22T11:53:11;15.60;99.90
11055;DHT22;5580;50.106;8.702;2024-03-22T11:55:37;15.70;99.90
11055;DHT22;5580;50.106;8.702;2024-03-22T11:58:02;15.70;99.90
11055;DHT22;5580;50.106;8.702;2024-03-22T12:00:28;15.70;99.90
11055;DHT22;5580;50.106;8.702;2024-03-22T12:02:54;15.70;99.90
11055;DHT22;5580;50.106;8.702;2024-03-22T12:05:23;15.80;99.90
11055;DHT22;5580;50.106;8.702;2024-03-22T12:07:51;15.80;99.90
11055;DHT22;5580;50.106;8.702;2024-03-22T12:10:17;15.80;99.90
11055;DHT22;5580;50.106;8.702;2024-03-22T12:12:43;15.80;99.90
11055;DHT22;5580;50.106;8.702;2024-03-22T12:15:09;15.80;99.90
11055;DHT22;5580;50.106;8.702;2024-03-22T12:17:34;15.90;99.90
11055;DHT22;5580;50.106;8.702;2024-03-22T12:20:02;15.90;99.90
11055;DHT22;5580;50.106;8.702;2024-03-22T12:22:29;16.00;99.90
11055;DHT22;5580;50.106;8.702;2024-03-22T12:24:55;16.00;99.90
11055;DHT22;5580;50.106;8.702;2024-03-22T12:27:21;16.00;99.90
11055;DHT22;5580;50.106;8.702;2024-03-22T12:29:46;16.00;99.90
11055;DHT22;5580;50.106;8.702;2024-03-22T12:32:12;16.10;99.90
11055;DHT22;5580;50.106;8.702;2024-03-22T12:34:37;16.10;99.90
11055;DHT22;5580;50.106;8.702;2024-03-22T12:37:03;16.20;99.90
11055;DHT22;5580;50.106;8.702;2024-03-22T12:39:29;16.20;99.90
11055;DHT22;5580;50.106;8.702;2024-03-22T12:41:54;16.20;99.90
11055;DHT22;5580;50.106;8.702;2024-03-22T12:44:20;16.20;99.90
11055;DHT22;5580;50.106;8.702;2024-03-22T12:46:46;16.30;99.90
11055;DHT22;5580;50.106;8.702;2024-03-22T12:49:12;16.30;99.90
11055;DHT22;5580;50.106;8.702;2024-03-22T12:51:37;16.30;99.90
11055;DHT22;5580;50.106;8.702;2024-03-22T12:54:03;16.30;99.90
11055;DHT22;5580;50.106;8.702;2024-03-22T12:56:30;16.40;99.90
11055;DHT22;5580;50.106;8.702;2024-03-22T12:58:56;16.40;99.90
11055;DHT22;5580;50.106;8.702;2024-03-22T13:01:22;16.40;99.90
11055;DHT22;5580;50.106;8.702;2024-03-22T13:03:47;16.40;99.90
11055;DHT22;5580;50.106;8.702;2024-03-22T13:06:13;16.40;99.90
11055;DHT22;5580;50.106;8.702;2024-03-22T13:08:38;16.40;99.90
11055;DHT22;5580;50.106;8.702;2024-03-22T13:11:05;16.50;99.90
11055;DHT22;5580;50.106;8.702;2024-03-22T13:13:33;16.50;99.90
11055;DHT22;5580;50.106;8.702;2024-03-22T13:15:59;16.50;99.90
11055;DHT22;5580;50.106;8.702;2024-03-22T13:18:28;16.60;99.90
11055;DHT22;5580;50.106;8.702;2024-03-22T13:20:53;16.60;99.90
11055;DHT22;5580;50.106;8.702;2024-03-22T13:23:19;16.60;99.90
11055;DHT22;5580;50.106;8.702;2024-03-22T13:25:45;16.60;99.90
11055;DHT22;5580;50.106;8.702;2024-03-22T13:28:10;16.70;99.90
11055;DHT22;5580;50.106;8.702;2024-03-22T13:30:36;16.70;99.90
11055;DHT22;5580;50.106;8.702;2024-03-22T13:33:03;16.70;99.90
11055;DHT22;5580;50.106;8.702;2024-03-22T13:35:28;16.70;99.90
11055;DHT22;5580;50.106;8.702;2024-03-22T13:37:54;16.70;99.90
11055;DHT22;5580;50.106;8.702;2024-03-22T13:40:20;16.80;99.90
11055;DHT22;5580;50.106;8.702;2024-03-22T13:42:46;16.80;99.90
11055;DHT22;5580;50.106;8.702;2024-03-22T13:45:12;16.80;99.90
11055;DHT22;5580;50.106;8.702;2024-03-22T13:47:38;16.80;99.90
11055;DHT22;5580;50.106;8.702;2024-03-22T13:50:07;16.80;99.90
11055;DHT22;5580;50.106;8.702;2024-03-22T13:52:34;16.70;99.90
11055;DHT22;5580;50.106;8.702;2024-03-22T13:55:03;16.70;99.90
11055;DHT22;5580;50.106;8.702;2024-03-22T13:57:30;16.70;99.90
11055;DHT22;5580;50.106;8.702;2024-03-22T13:59:56;16.70;99.90
11055;DHT22;5580;50.106;8.702;2024-03-22T14:02:21;16.60;99.90
11055;DHT22;5580;50.106;8.702;2024-03-22T14:04:47;16.60;99.90
11055;DHT22;5580;50.106;8.702;2024-03-22T14:07:13;16.60;99.90
11055;DHT22;5580;50.106;8.702;2024-03-22T14:09:38;16.60;99.90
11055;DHT22;5580;50.106;8.702;2024-03-22T14:12:06;16.60;99.90
11055;DHT22;5580;50.106;8.702;2024-03-22T14:14:32;16.60;99.90
11055;DHT22;5580;50.106;8.702;2024-03-22T14:16:57;16.60;99.90
11055;DHT22;5580;50.106;8.702;2024-03-22T14:19:23;16.60;99.90
11055;DHT22;5580;50.106;8.702;2024-03-22T14:21:49;16.60;99.90
11055;DHT22;5580;50.106;8.702;2024-03-22T14:24:15;16.60;99.90
11055;DHT22;5580;50.106;8.702;2024-03-22T14:26:41;16.60;99.90
11055;DHT22;5580;50.106;8.702;2024-03-22T14:29:10;16.60;99.90
11055;DHT22;5580;50.106;8.702;2024-03-22T14:31:37;16.60;99.90
11055;DHT22;5580;50.106;8.702;2024-03-22T14:34:03;16.60;99.90
11055;DHT22;5580;50.106;8.702;2024-03-22T14:36:29;16.60;99.90
11055;DHT22;5580;50.106;8.702;2024-03-22T14:38:54;16.60;99.90
11055;DHT22;5580;50.106;8.702;2024-03-22T14:41:20;16.60;99.90
11055;DHT22;5580;50.106;8.702;2024-03-22T14:43:46;16.60;99.90
11055;DHT22;5580;50.106;8.702;2024-03-22T14:46:11;16.70;99.90
11055;DHT22;5580;50.106;8.702;2024-03-22T14:48:37;16.70;99.90
11055;DHT22;5580;50.106;8.702;2024-03-22T14:51:03;16.70;99.90
11055;DHT22;5580;50.106;8.702;2024-03-22T14:53:29;16.70;99.90
11055;DHT22;5580;50.106;8.702;2024-03-22T14:56:01;16.70;99.90
11055;DHT22;5580;50.106;8.702;2024-03-22T14:58:33;16.70;99.90
11055;DHT22;5580;50.106;8.702;2024-03-22T15:01:03;16.70;99.90
11055;DHT22;5580;50.106;8.702;2024-03-22T15:03:30;16.70;99.90
11055;DHT22;5580;50.106;8.702;2024-03-22T15:05:59;16.70;99.90
11055;DHT22;5580;50.106;8.702;2024-03-22T15:08:26;16.80;99.90
11055;DHT22;5580;50.106;8.702;2024-03-22T15:10:51;16.80;99.90
11055;DHT22;5580;50.106;8.702;2024-03-22T15:13:17;16.80;99.90
11055;DHT22;5580;50.106;8.702;2024-03-22T15:15:54;16.80;99.90
11055;DHT22;5580;50.106;8.702;2024-03-22T15:18:20;16.80;99.90
11055;DHT22;5580;50.106;8.702;2024-03-22T15:20:46;16.80;99.90
11055;DHT22;5580;50.106;8.702;2024-03-22T15:23:13;16.80;99.90
11055;DHT22;5580;50.106;8.702;2024-03-22T15:25:38;16.80;99.90
11055;DHT22;5580;50.106;8.702;2024-03-22T15:28:04;16.80;99.90
11055;DHT22;5580;50.106;8.702;2024-03-22T15:30:30;16.90;99.90
11055;DHT22;5580;50.106;8.702;2024-03-22T15:32:55;16.90;99.90
11055;DHT22;5580;50.106;8.702;2024-03-22T15:35:21;16.80;99.90
11055;DHT22;5580;50.106;8.702;2024-03-22T15:37:47;16.90;99.90